^^

Meteo Aereoporti Centro-Italia

 

 
LIRZ - Perugia S.Egidio (208 m.)
Dati ricevuti: 12/11/2019 11:50
Molto nuvoloso
Molto nuvoloso
 Vento da N
Vento: N 26 km/h
TEMPERATURA: 15°C
P.to di Rugiada: 11°C
Umidità: 77%
Pressione: 995 hPa
Nuvole: Molto nuvoloso
Visibilità: 10 km
Dettagli Nuvole: Qualche nuvola 1219 m
Molto nuvoloso 2134 m
2019/11/12 10:50 LIRZ 121050Z 01014KT 9999 FEW040 BKN070 15/11 Q0995
 
LIPY - Ancona Falconara (12 m.)
Dati ricevuti: 12/11/2019 11:50
Pioggia debole, Molto Nuvoloso
Pioggia debole, Molto Nuvoloso
 Vento da WNW
Vento: WNW 15 km/h
TEMPERATURA: 11°C
P.to di Rugiada: 11°C
Umidità: 100%
Pressione: 998 hPa
Condizioni generali: Pioggia debole
Nuvole: Molto nuvoloso
Visibilità: 6 km
Dettagli Nuvole: Poco nuvoloso 152 m
Molto nuvoloso 305 m
2019/11/12 10:50 LIPY 121050Z 30008KT 260V330 6000 -RA SCT005 BKN010 11/11 Q0998
 
LIPR - Rimini Miramare (12 m.)
Dati ricevuti: 12/11/2019 12:50
Pioviggine, Foschia, Coperto
Pioviggine, Foschia, Coperto
 Vento da W
Vento: W 30 km/h
TEMPERATURA: 9°C
Raffreddamento da Vento: 5°C
P.to di Rugiada: 8°C
Umidità: 94%
Pressione: 997 hPa
Condizioni generali: Pioviggine, Foschia
Nuvole: Coperto
Visibilità: 4 km
Dettagli Nuvole: Poco nuvoloso 244 m
Coperto 457 m
2019/11/12 11:50 LIPR 121150Z 27016KT 4000 DZ BR SCT008 OVC015 09/08 Q0997
 
LIRF - Roma Fiumicino (2 m.)
Dati ricevuti: 12/11/2019 12:50
Pioggia debole, Qualche nuvola
Pioggia debole, Qualche nuvola
 Vento da ENE
Vento: ENE 9 km/h
TEMPERATURA: 15°C
P.to di Rugiada: 12°C
Umidità: 82%
Pressione: 992 hPa
Condizioni generali: Pioggia debole
Nuvole: Qualche nuvola
Visibilità: 10 km
Dettagli Nuvole: Qualche nuvola 1524 m
2019/11/12 11:50 LIRF 121150Z 07005KT 9999 -RA FEW050 15/12 Q0992 TEMPO
 
LIRA - Roma Ciampino (129 m.)
Dati ricevuti: 12/11/2019 12:50
Pioggia debole, Poco nuvoloso
Pioggia debole, Poco nuvoloso
 Vento da NE
Vento: NE 9 km/h
TEMPERATURA: 14°C
P.to di Rugiada: 11°C
Umidità: 82%
Pressione: 992 hPa
Condizioni generali: Pioggia debole
Nuvole: Poco nuvoloso
Visibilità: 10 km
Dettagli Nuvole: Qualche nuvola 1219 m
Poco nuvoloso 1829 m
2019/11/12 11:50 LIRA 121150Z 04005KT 9999 -RA FEW040 SCT060 14/11 Q0992
 
LIRU - Roma Urbe (17 m.)
Dati ricevuti: 12/11/2019 11:50
Qualche nuvola
Qualche nuvola
 Vento da direzione variabile
Vento: direzione variabile 4 km/h
TEMPERATURA: 14°C
P.to di Rugiada: 12°C
Umidità: 88%
Pressione: 993 hPa
Nuvole: Qualche nuvola
Visibilità: 10 km
Dettagli Nuvole: Qualche nuvola 1372 m
2019/11/12 10:50 LIRU 121050Z VRB02KT 9999 FEW045 14/12 Q0993
 
LIVF - Frontone (570 m.)
Dati ricevuti: 12/11/2019 11:55
Pioggia debole, Nebbia
Pioggia debole, Nebbia
 Vento da WNW
Vento: WNW 15 km/h
TEMPERATURA: 9°C
Raffreddamento da Vento: 7°C
P.to di Rugiada: 9°C
Umidità: 100%
Pressione: 998 hPa
Condizioni generali: Pioggia debole, Nebbia
Visibilità: 0 km
2019/11/12 10:55 LIVF 121055Z 30008KT 0100 -RA FG VV/// 09/09 Q0998 RERA RMK MON INVIS VAL INVIS VIS MIN 0100
 
LIRQ - Firenze Peretola (40 m.)
Dati ricevuti: 12/11/2019 12:50
Qualche nuvola
Qualche nuvola
 Vento da direzione variabile
Vento: direzione variabile 7 km/h
TEMPERATURA: 16°C
P.to di Rugiada: 9°C
Umidità: 63%
Pressione: 995 hPa
Nuvole: Qualche nuvola
Visibilità: 10 km
Dettagli Nuvole: Qualche nuvola 823 m
2019/11/12 11:50 LIRQ 121150Z VRB04KT 9999 FEW027 16/09 Q0995
 
LIBP - Pescara (10 m.)
Dati ricevuti: 12/11/2019 11:50
Molto nuvoloso
Molto nuvoloso
 Vento da SSW
Vento: SSW 11 km/h
TEMPERATURA: 13°C
P.to di Rugiada: 13°C
Umidità: 100%
Pressione: 995 hPa
Nuvole: Molto nuvoloso
Visibilità: 7 km
Dettagli Nuvole: Molto nuvoloso 305 m
2019/11/12 10:50 LIBP 121050Z 21006KT 7000 BKN010 13/13 Q0995
 
LIRV - Viterbo (300 m.)
Dati ricevuti: 12/11/2019 11:55
Qualche nuvola
Qualche nuvola
 Vento da direzione variabile
Vento: direzione variabile 0 km/h
TEMPERATURA: 14°C
P.to di Rugiada: 10°C
Umidità: 77%
Pressione: 994 hPa
Nuvole: Qualche nuvola
Visibilità: 10 km
Dettagli Nuvole: Qualche nuvola 549 m
2019/11/12 10:55 LIRV 121055Z /////KT 9999 FEW018 14/10 Q0994
 
LIQN - Rieti (389 m.)
Dati ricevuti: 12/11/2019 11:50
Banchi di nebbia, Poco nuvoloso
Banchi di nebbia, Poco nuvoloso
 Vento da direzione variabile
Vento: direzione variabile 6 km/h
TEMPERATURA: 11°C
P.to di Rugiada: 11°C
Umidità: 100%
Pressione: 994 hPa
Condizioni generali: Patches of Fog
Nuvole: Poco nuvoloso
Visibilità: 5 km
2019/11/12 10:50 LIQN 121050Z VRB03KT 5000 BCFG NSC 11/11 Q0994
 
LIRG - Guidonia -RM- (88 m.)
Dati ricevuti: 12/11/2019 11:55
Qualche nuvola
Qualche nuvola
 Vento da direzione variabile
Vento: direzione variabile 4 km/h
TEMPERATURA: 13°C
P.to di Rugiada: 11°C
Umidità: 88%
Pressione: 993 hPa
Nuvole: Qualche nuvola
Visibilità: 10 km
Dettagli Nuvole: Qualche nuvola 1219 m
2019/11/12 10:55 LIRG 121055Z VRB02KT 9999 FEW040 13/11 Q0993
 
LIRK - Terminillo -RI-(1874 m.)
Dati ricevuti: 12/11/2019 11:55

 Vento da E
Vento: E 22 km/h
TEMPERATURA: 5°C
Raffreddamento da Vento: 1°C
P.to di Rugiada: 4°C
Umidità: 93%
Pressione: 997 hPa
2019/11/12 10:55 LIRK 121055Z AUTO 09012KT //// 05/04 Q0997
 
LIPK - Forlì (27 m.)
Dati ricevuti: 12/11/2019 12:50
Molto nuvoloso
Molto nuvoloso
 Vento da WNW
Vento: WNW 17 km/h
TEMPERATURA: 9°C
Raffreddamento da Vento: 7°C
P.to di Rugiada: 8°C
Umidità: 94%
Pressione: 999 hPa
Nuvole: Molto nuvoloso
Visibilità: 6 km
Dettagli Nuvole: Poco nuvoloso 244 m
Molto nuvoloso 457 m
2019/11/12 11:50 LIPK 121150Z 29009KT 6000 SCT008 BKN015 09/08 Q0999
 
LIRS - Grosseto (5 m.)
Dati ricevuti: 12/11/2019 11:55
Poco nuvoloso
Poco nuvoloso
 Vento da N
Vento: N 20 km/h
TEMPERATURA: 15°C
P.to di Rugiada: 10°C
Umidità: 72%
Pressione: 994 hPa
Nuvole: Poco nuvoloso
Visibilità: 10 km
Dettagli Nuvole: Qualche nuvola 1219 m
Poco nuvoloso 1829 m
2019/11/12 10:55 LIRS 121055Z 35011KT 9999 FEW040 SCT060 15/10 Q0994 RMK OVC OVC100 VIS MIN 9999 WIND THR03 02011KT WIND THR21 36011KT BLU
 
LIRP - Pisa S.Giusto (2 m.)
Dati ricevuti: 12/11/2019 12:45
Poco nuvoloso
Poco nuvoloso
 Vento da ESE
Vento: ESE 2 km/h
TEMPERATURA: 16°C
P.to di Rugiada: 12°C
Umidità: 77%
Pressione: 996 hPa
Nuvole: Poco nuvoloso
Visibilità: 10 km
Dettagli Nuvole: Poco nuvoloso 1829 m
2019/11/12 11:45 LIRP 121145Z 12001KT 9999 SCT060 16/12 Q0996 NOSIG